Time;durP1;ratioP1;P1;durP2;ratioP2;P2;SDS_P1;SDS_P2;PMS_P1;PMS_P2;Temp;Humidity;BMP_temperature;BMP_pressure;BME280_temperature;BME280_humidity;BME280_pressure;Samples;Min_cycle;Max_cycle;Signal;HPM_P1;HPM_P2
2021/09/10 00:01:50;;;;;;;27.17;17.38;;;9.40;99.90;;;;;;5092848;28;20073;-78
2021/09/10 00:04:16;;;;;;;22.75;15.85;;;9.30;99.90;;;;;;5092065;28;20124;-78
2021/09/10 00:06:42;;;;;;;20.88;14.18;;;9.30;99.90;;;;;;5092949;28;20469;-78
2021/09/10 00:09:08;;;;;;;20.92;13.93;;;9.20;99.90;;;;;;5090570;28;20039;-78
2021/09/10 00:11:33;;;;;;;23.90;15.07;;;9.20;99.90;;;;;;5091785;28;20035;-78
2021/09/10 00:13:59;;;;;;;28.77;16.50;;;9.20;99.90;;;;;;5082861;28;20032;-79
2021/09/10 00:16:25;;;;;;;32.22;17.85;;;9.20;99.90;;;;;;5090711;28;20378;-79
2021/09/10 00:18:50;;;;;;;26.40;14.68;;;9.10;99.90;;;;;;5079331;28;20496;-78
2021/09/10 00:21:16;;;;;;;22.85;15.23;;;9.00;99.90;;;;;;5091988;28;20038;-79
2021/09/10 00:23:42;;;;;;;17.88;12.48;;;9.00;99.90;;;;;;5095236;28;20538;-78
2021/09/10 00:26:08;;;;;;;22.70;13.90;;;8.90;99.90;;;;;;5094770;28;20028;-79
2021/09/10 00:28:34;;;;;;;23.75;15.18;;;8.90;99.90;;;;;;5095502;28;20024;-79
2021/09/10 00:31:00;;;;;;;23.15;14.68;;;8.90;99.90;;;;;;5095882;28;20024;-79
2021/09/10 00:33:26;;;;;;;24.77;14.25;;;8.80;99.90;;;;;;5095390;28;20485;-79
2021/09/10 00:35:52;;;;;;;24.63;14.07;;;8.80;99.90;;;;;;5095743;28;20025;-79
2021/09/10 00:38:18;;;;;;;28.45;15.07;;;8.80;99.90;;;;;;5096736;28;20038;-80
2021/09/10 00:40:45;;;;;;;32.70;17.25;;;8.80;99.90;;;;;;5093943;28;20028;-79
2021/09/10 00:43:10;;;;;;;33.47;17.35;;;8.80;99.90;;;;;;5095296;28;20024;-79
2021/09/10 00:45:42;;;;;;;29.02;15.77;;;8.80;99.90;;;;;;5095654;28;20509;-79
2021/09/10 00:48:09;;;;;;;30.58;16.60;;;8.70;99.90;;;;;;5095010;28;20451;-79
2021/09/10 00:50:34;;;;;;;34.30;15.45;;;8.70;99.90;;;;;;5095458;28;20035;-79
2021/09/10 00:53:01;;;;;;;27.75;15.50;;;8.70;99.90;;;;;;5096228;28;20016;-78
2021/09/10 00:55:27;;;;;;;23.13;14.05;;;8.70;99.90;;;;;;5093903;28;20106;-78
2021/09/10 00:57:53;;;;;;;23.83;13.68;;;8.70;99.90;;;;;;5115229;28;20035;-78
2021/09/10 01:00:19;;;;;;;26.90;13.60;;;8.60;99.90;;;;;;5103788;28;20024;-78
2021/09/10 01:02:46;;;;;;;25.38;14.70;;;8.60;99.90;;;;;;5094844;28;20118;-78
2021/09/10 01:05:12;;;;;;;25.20;13.90;;;8.50;99.90;;;;;;5093593;28;20036;-78
2021/09/10 01:07:38;;;;;;;22.52;13.63;;;8.50;99.90;;;;;;5096039;28;20366;-78
2021/09/10 01:10:05;;;;;;;22.20;12.98;;;8.50;99.90;;;;;;5095089;28;20095;-79
2021/09/10 01:12:31;;;;;;;24.73;13.27;;;8.50;99.90;;;;;;5094567;28;20039;-79
2021/09/10 01:14:58;;;;;;;25.00;12.68;;;8.50;99.90;;;;;;5094868;28;20040;-79
2021/09/10 01:17:24;;;;;;;26.45;13.32;;;8.40;99.90;;;;;;5094615;28;20016;-79
2021/09/10 01:19:50;;;;;;;22.38;13.75;;;8.40;99.90;;;;;;5093633;28;20111;-79
2021/09/10 01:22:15;;;;;;;24.92;13.85;;;8.40;99.90;;;;;;5094615;28;20056;-78
2021/09/10 01:25:01;;;;;;;24.40;14.13;;;8.30;99.90;;;;;;5092871;28;20078;-79
2021/09/10 01:27:27;;;;;;;21.35;12.05;;;8.30;99.90;;;;;;5094109;28;20032;-79
2021/09/10 01:29:52;;;;;;;24.27;13.40;;;8.30;99.90;;;;;;5093423;28;20024;-79
2021/09/10 01:32:18;;;;;;;20.40;12.48;;;8.30;99.90;;;;;;5092592;28;20055;-78
2021/09/10 01:34:44;;;;;;;24.80;12.75;;;8.20;99.90;;;;;;5091827;28;20397;-79
2021/09/10 01:37:09;;;;;;;18.08;11.75;;;8.30;99.90;;;;;;5094445;28;20020;-79
2021/09/10 01:39:35;;;;;;;18.08;11.10;;;8.20;99.90;;;;;;5092194;28;20496;-79
2021/09/10 01:42:00;;;;;;;17.95;10.73;;;8.20;99.90;;;;;;5094300;28;20142;-79
2021/09/10 01:44:26;;;;;;;18.92;10.65;;;8.20;99.90;;;;;;5093382;28;20626;-79
2021/09/10 01:46:52;;;;;;;18.75;10.55;;;8.20;99.90;;;;;;5089541;28;20513;-79
2021/09/10 01:49:17;;;;;;;24.15;13.43;;;8.20;99.90;;;;;;5084188;28;20098;-79
2021/09/10 01:51:43;;;;;;;20.30;11.07;;;8.20;99.90;;;;;;5091558;28;20162;-79
2021/09/10 01:54:09;;;;;;;18.50;11.85;;;8.20;99.90;;;;;;5092641;28;20062;-79
2021/09/10 01:56:35;;;;;;;17.25;10.65;;;8.20;99.90;;;;;;5092665;28;20020;-79
2021/09/10 01:59:01;;;;;;;18.38;11.13;;;8.20;99.90;;;;;;5092690;28;20546;-79
2021/09/10 02:01:30;;;;;;;19.45;11.80;;;8.10;99.90;;;;;;5089246;28;20036;-79
2021/09/10 02:03:57;;;;;;;17.13;11.13;;;8.10;99.90;;;;;;5091291;28;20115;-80
2021/09/10 02:06:23;;;;;;;17.05;10.05;;;8.00;99.90;;;;;;5090922;28;20032;-80
2021/09/10 02:08:49;;;;;;;18.50;10.30;;;8.00;99.90;;;;;;5091651;28;20020;-80
2021/09/10 02:11:15;;;;;;;16.40;10.43;;;8.00;99.90;;;;;;5091137;28;20031;-80
2021/09/10 02:13:41;;;;;;;16.27;9.48;;;7.90;99.90;;;;;;5091783;28;20036;-81
2021/09/10 02:16:07;;;;;;;15.07;10.02;;;7.90;99.90;;;;;;5094206;28;20474;-81
2021/09/10 02:18:34;;;;;;;16.75;10.20;;;7.90;99.90;;;;;;5114181;28;20024;-81
2021/09/10 02:21:00;;;;;;;14.90;9.57;;;7.90;99.90;;;;;;5095814;28;20362;-81
2021/09/10 02:23:25;;;;;;;15.05;9.90;;;7.80;99.90;;;;;;5049741;28;1299511;-81
2021/09/10 02:25:51;;;;;;;14.48;9.27;;;7.80;99.90;;;;;;5097545;28;20482;-80
2021/09/10 02:28:17;;;;;;;15.13;9.15;;;7.80;99.90;;;;;;5110372;28;20599;-81
2021/09/10 02:30:42;;;;;;;12.30;8.65;;;7.80;99.90;;;;;;5109038;28;20077;-80
2021/09/10 02:33:08;;;;;;;13.98;9.07;;;7.70;99.90;;;;;;5109088;28;20016;-80
2021/09/10 02:35:34;;;;;;;14.07;9.55;;;7.60;99.90;;;;;;5092932;28;20474;-80
2021/09/10 02:37:59;;;;;;;13.32;9.05;;;7.60;99.90;;;;;;5093709;28;20033;-80
2021/09/10 02:40:25;;;;;;;16.83;9.10;;;7.60;99.90;;;;;;5092814;28;20103;-80
2021/09/10 02:42:51;;;;;;;13.75;8.70;;;7.60;99.90;;;;;;5092361;28;20110;-80
2021/09/10 02:45:16;;;;;;;14.20;9.43;;;7.60;99.90;;;;;;5090133;28;20103;-80
2021/09/10 02:47:42;;;;;;;14.63;8.93;;;7.50;99.90;;;;;;5093412;28;20073;-80
2021/09/10 02:50:08;;;;;;;14.93;10.10;;;7.50;99.90;;;;;;5092452;28;20035;-80
2021/09/10 02:52:35;;;;;;;16.92;9.93;;;7.50;99.90;;;;;;5090816;28;20386;-80
2021/09/10 02:55:00;;;;;;;13.10;8.65;;;7.50;99.90;;;;;;5090392;28;20043;-80
2021/09/10 02:57:26;;;;;;;14.70;8.85;;;7.40;99.90;;;;;;5091962;28;20028;-80
2021/09/10 02:59:52;;;;;;;15.82;8.88;;;7.50;99.90;;;;;;5092432;28;20024;-80
2021/09/10 03:02:18;;;;;;;16.15;9.40;;;7.50;99.90;;;;;;5092649;28;20044;-80
2021/09/10 03:04:47;;;;;;;20.02;9.43;;;7.50;99.90;;;;;;5091620;28;20051;-80
2021/09/10 03:07:14;;;;;;;16.00;8.38;;;7.40;99.90;;;;;;5092543;28;20092;-80
2021/09/10 03:09:40;;;;;;;14.88;9.48;;;7.40;99.90;;;;;;5091572;28;20055;-80
2021/09/10 03:12:06;;;;;;;16.15;9.80;;;7.40;99.90;;;;;;5092330;28;20385;-80
2021/09/10 03:14:31;;;;;;;13.75;8.77;;;7.40;99.90;;;;;;5091349;28;20028;-80
2021/09/10 03:16:58;;;;;;;15.10;9.60;;;7.40;99.90;;;;;;5093324;28;20359;-80
2021/09/10 03:19:24;;;;;;;14.15;9.20;;;7.40;99.90;;;;;;5092508;28;20409;-80
2021/09/10 03:21:50;;;;;;;16.85;9.52;;;7.30;99.90;;;;;;5093424;28;20474;-80
2021/09/10 03:24:15;;;;;;;15.20;10.20;;;7.30;99.90;;;;;;5092570;28;20028;-80
2021/09/10 03:26:41;;;;;;;13.75;9.40;;;7.30;99.90;;;;;;5093495;28;20024;-80
2021/09/10 03:29:08;;;;;;;15.50;9.05;;;7.30;99.90;;;;;;5092607;28;20566;-80
2021/09/10 03:31:33;;;;;;;15.88;10.13;;;7.30;99.90;;;;;;5092243;28;20358;-80
2021/09/10 03:33:59;;;;;;;13.07;9.68;;;7.30;99.90;;;;;;5093003;28;20058;-80
2021/09/10 03:36:25;;;;;;;16.60;10.13;;;7.20;99.90;;;;;;5091983;28;20032;-80
2021/09/10 03:38:51;;;;;;;13.55;8.95;;;7.30;99.90;;;;;;5080383;28;20020;-80
2021/09/10 03:41:17;;;;;;;12.02;8.75;;;7.20;99.90;;;;;;5083389;28;20396;-80
2021/09/10 03:43:42;;;;;;;15.30;9.52;;;7.20;99.90;;;;;;5085455;28;20024;-80
2021/09/10 03:46:11;;;;;;;17.13;9.32;;;7.20;99.90;;;;;;5087007;28;20069;-80
2021/09/10 03:48:37;;;;;;;14.27;8.48;;;7.10;99.90;;;;;;5083643;28;20024;-80
2021/09/10 03:51:03;;;;;;;12.52;8.10;;;7.10;99.90;;;;;;5089872;28;20382;-80
2021/09/10 03:53:29;;;;;;;14.57;8.52;;;7.10;99.90;;;;;;5076890;28;20036;-80
2021/09/10 03:55:54;;;;;;;11.98;8.25;;;7.10;99.90;;;;;;5084183;28;20031;-80
2021/09/10 03:58:20;;;;;;;13.13;8.43;;;7.10;99.90;;;;;;5083334;28;20028;-81
2021/09/10 04:00:46;;;;;;;14.55;9.25;;;7.10;99.90;;;;;;5086452;28;20120;-81
2021/09/10 04:03:11;;;;;;;14.50;8.13;;;7.00;99.90;;;;;;5083478;28;20033;-81
2021/09/10 04:05:37;;;;;;;14.10;7.97;;;7.00;99.90;;;;;;5085463;28;20062;-80
2021/09/10 04:08:03;;;;;;;14.30;8.88;;;7.10;99.90;;;;;;5084348;28;20423;-81
2021/09/10 04:10:29;;;;;;;13.68;8.38;;;7.10;99.90;;;;;;5082956;28;20470;-81
2021/09/10 04:12:55;;;;;;;13.50;8.15;;;7.10;99.90;;;;;;5085355;28;20035;-80
2021/09/10 04:15:21;;;;;;;14.30;7.78;;;7.10;99.90;;;;;;5098298;28;20405;-81
2021/09/10 04:17:47;;;;;;;11.70;7.82;;;7.10;99.90;;;;;;5084227;28;20035;-80
2021/09/10 04:20:13;;;;;;;12.00;7.53;;;7.10;99.90;;;;;;5084000;28;20032;-80
2021/09/10 04:22:42;;;;;;;12.38;7.78;;;7.20;99.90;;;;;;5079799;28;20360;-80
2021/09/10 04:25:09;;;;;;;12.85;7.35;;;7.20;99.90;;;;;;5084513;28;20093;-80
2021/09/10 04:27:34;;;;;;;14.35;7.63;;;7.10;99.90;;;;;;5085378;28;20024;-80
2021/09/10 04:30:00;;;;;;;11.88;8.20;;;7.10;99.90;;;;;;5098724;28;20070;-80
2021/09/10 04:32:26;;;;;;;11.82;7.18;;;7.10;99.90;;;;;;5093991;28;20498;-80
2021/09/10 04:34:51;;;;;;;14.20;7.00;;;7.10;99.90;;;;;;5083993;28;20140;-80
2021/09/10 04:37:17;;;;;;;11.00;6.90;;;7.20;99.90;;;;;;5089066;28;20048;-81
2021/09/10 04:39:43;;;;;;;10.43;7.38;;;7.20;99.90;;;;;;5086568;28;20381;-81
2021/09/10 04:42:09;;;;;;;16.45;7.03;;;7.20;99.90;;;;;;5083378;28;20114;-81
2021/09/10 04:44:35;;;;;;;14.98;7.75;;;7.20;99.90;;;;;;5084858;28;20061;-80
2021/09/10 04:47:01;;;;;;;13.75;6.97;;;7.20;99.90;;;;;;5091465;28;20432;-80
2021/09/10 04:49:26;;;;;;;10.48;7.50;;;7.20;99.90;;;;;;5084224;28;20023;-80
2021/09/10 04:51:52;;;;;;;17.60;7.38;;;7.30;99.90;;;;;;5091980;28;20037;-80
2021/09/10 04:54:18;;;;;;;17.15;7.07;;;7.30;99.90;;;;;;5087621;28;20036;-80
2021/09/10 04:56:45;;;;;;;22.05;7.25;;;7.30;99.90;;;;;;5091329;28;20021;-81
2021/09/10 04:59:11;;;;;;;17.17;7.43;;;7.40;99.90;;;;;;5088240;28;20397;-81
2021/09/10 05:01:37;;;;;;;16.85;7.50;;;7.50;99.90;;;;;;5092721;28;20375;-81
2021/09/10 05:04:03;;;;;;;14.75;7.43;;;7.60;99.90;;;;;;5082123;28;20032;-80
2021/09/10 05:06:29;;;;;;;9.68;7.13;;;7.70;99.90;;;;;;5090595;28;20474;-80
2021/09/10 05:08:56;;;;;;;11.75;6.80;;;7.70;99.90;;;;;;5088141;28;20035;-80
2021/09/10 05:11:22;;;;;;;13.13;7.20;;;7.80;99.90;;;;;;5092110;28;20358;-80
2021/09/10 05:13:48;;;;;;;14.40;7.20;;;7.90;99.90;;;;;;5090552;28;20043;-82
2021/09/10 05:16:13;;;;;;;15.48;8.32;;;8.00;99.90;;;;;;5092816;28;20474;-80
2021/09/10 05:18:39;;;;;;;14.73;8.20;;;8.10;99.90;;;;;;5094215;28;20097;-80
2021/09/10 05:21:05;;;;;;;16.65;7.65;;;8.20;99.90;;;;;;5110569;28;20038;-79
2021/09/10 05:23:31;;;;;;;12.18;7.05;;;8.40;99.90;;;;;;5105399;28;20470;-80
2021/09/10 05:25:57;;;;;;;11.43;8.00;;;8.50;99.90;;;;;;5088991;28;20020;-79
2021/09/10 05:28:23;;;;;;;10.60;7.60;;;8.70;99.90;;;;;;5089727;28;20028;-79
2021/09/10 05:30:49;;;;;;;11.05;8.35;;;8.80;99.90;;;;;;5091985;28;20028;-80
2021/09/10 05:33:14;;;;;;;12.77;7.18;;;9.00;99.90;;;;;;5087902;28;20477;-79
2021/09/10 05:35:40;;;;;;;12.88;7.28;;;9.20;99.90;;;;;;5088426;28;20024;-79
2021/09/10 05:38:06;;;;;;;16.50;8.13;;;9.40;99.90;;;;;;5091690;28;20430;-79
2021/09/10 05:40:31;;;;;;;17.88;7.60;;;9.60;99.90;;;;;;5092564;28;20028;-79
2021/09/10 05:42:57;;;;;;;13.85;7.35;;;9.80;99.90;;;;;;5093537;28;20047;-80
2021/09/10 05:45:23;;;;;;;14.80;8.90;;;10.00;99.90;;;;;;5092188;28;20073;-80
2021/09/10 05:47:48;;;;;;;16.15;8.65;;;10.10;99.90;;;;;;5093380;28;20032;-80
2021/09/10 05:50:14;;;;;;;10.95;8.50;;;10.30;99.90;;;;;;5101319;28;20028;-79
2021/09/10 05:52:40;;;;;;;18.60;9.13;;;10.50;99.90;;;;;;5098953;28;20024;-79
2021/09/10 05:55:06;;;;;;;18.15;9.68;;;10.70;99.90;;;;;;5107970;28;20028;-80
2021/09/10 05:57:31;;;;;;;16.60;8.85;;;10.90;99.90;;;;;;5092880;28;20020;-77
2021/09/10 05:59:57;;;;;;;17.75;10.07;;;11.10;99.90;;;;;;5091590;28;20027;-77
2021/09/10 06:02:22;;;;;;;14.65;9.23;;;11.30;99.90;;;;;;5095089;28;20099;-77
2021/09/10 06:04:48;;;;;;;15.10;8.75;;;11.50;99.90;;;;;;5090985;28;20016;-76
2021/09/10 06:07:14;;;;;;;17.25;8.98;;;11.80;99.90;;;;;;5094801;28;20077;-77
2021/09/10 06:09:40;;;;;;;14.40;8.45;;;12.10;99.90;;;;;;5089143;28;20499;-77
2021/09/10 06:12:06;;;;;;;20.27;9.15;;;12.30;99.90;;;;;;5093977;28;20048;-77
2021/09/10 06:14:32;;;;;;;16.08;8.57;;;12.60;99.90;;;;;;5092309;28;20039;-77
2021/09/10 06:16:58;;;;;;;17.08;8.65;;;12.90;99.90;;;;;;5091745;28;20465;-78
2021/09/10 06:19:24;;;;;;;16.35;7.88;;;13.20;99.90;;;;;;5086955;28;20021;-78
2021/09/10 06:21:49;;;;;;;19.00;8.73;;;13.50;99.90;;;;;;5091903;28;20346;-78
2021/09/10 06:24:15;;;;;;;13.88;8.00;;;13.70;99.90;;;;;;5090588;28;20062;-77
2021/09/10 06:26:41;;;;;;;9.45;6.47;;;14.00;99.90;;;;;;5074805;28;20027;-78
2021/09/10 06:29:06;;;;;;;8.88;6.90;;;14.30;99.90;;;;;;5078316;28;20131;-77
2021/09/10 06:31:32;;;;;;;9.65;6.07;;;14.60;99.90;;;;;;5090841;28;20022;-78
2021/09/10 06:33:58;;;;;;;6.57;5.28;;;14.90;99.90;;;;;;5085333;28;20029;-78
2021/09/10 06:36:24;;;;;;;10.65;5.93;;;15.20;99.90;;;;;;5091666;28;20119;-77
2021/09/10 06:38:49;;;;;;;10.30;7.15;;;15.40;99.90;;;;;;5082793;28;20093;-78
2021/09/10 06:41:15;;;;;;;13.98;8.15;;;15.70;99.90;;;;;;5103898;28;20015;-78
2021/09/10 06:43:41;;;;;;;10.88;5.78;;;16.00;99.90;;;;;;5097269;28;20024;-78
2021/09/10 06:46:06;;;;;;;9.50;6.50;;;16.20;99.90;;;;;;5109100;28;20020;-77
2021/09/10 06:48:32;;;;;;;10.85;6.40;;;16.40;99.90;;;;;;5094235;28;20024;-78
2021/09/10 06:50:58;;;;;;;10.45;6.68;;;16.60;99.90;;;;;;5093245;28;20378;-78
2021/09/10 06:53:24;;;;;;;11.75;6.60;;;16.80;99.90;;;;;;5089434;28;20478;-78
2021/09/10 06:55:49;;;;;;;14.13;7.03;;;17.00;99.90;;;;;;5087374;28;20020;-78
2021/09/10 06:58:15;;;;;;;9.52;5.43;;;17.20;97.90;;;;;;5090236;28;20020;-78
2021/09/10 07:00:40;;;;;;;11.93;6.28;;;17.40;95.60;;;;;;5087581;28;20055;-78
2021/09/10 07:03:06;;;;;;;9.43;5.32;;;17.60;89.10;;;;;;5104703;28;20670;-78
2021/09/10 07:05:32;;;;;;;7.95;5.47;;;17.80;88.30;;;;;;5089886;28;20028;-78
2021/09/10 07:07:57;;;;;;;6.25;5.13;;;17.90;90.30;;;;;;5091045;28;20028;-78
2021/09/10 07:10:23;;;;;;;9.10;4.68;;;18.10;89.50;;;;;;5083530;28;20048;-78
2021/09/10 07:12:50;;;;;;;6.13;5.00;;;18.20;85.50;;;;;;5093298;28;20543;-78
2021/09/10 07:15:16;;;;;;;8.60;5.13;;;18.40;85.50;;;;;;5092734;28;20059;-78
2021/09/10 07:17:42;;;;;;;6.30;4.97;;;18.40;82.70;;;;;;5085638;28;20086;-79
2021/09/10 07:20:08;;;;;;;10.27;4.63;;;18.60;79.90;;;;;;5087887;28;20036;-78
2021/09/10 07:22:34;;;;;;;5.80;4.47;;;18.70;76.20;;;;;;5093343;28;20024;-78
2021/09/10 07:25:00;;;;;;;7.00;3.60;;;18.80;78.40;;;;;;5090771;28;20497;-78
2021/09/10 07:27:25;;;;;;;11.75;4.35;;;18.90;77.90;;;;;;5092339;28;20020;-78
2021/09/10 07:29:51;;;;;;;6.72;4.35;;;19.10;77.20;;;;;;5090881;28;20032;-78
2021/09/10 07:32:16;;;;;;;8.07;3.83;;;19.20;78.80;;;;;;5091863;28;20051;-78
2021/09/10 07:34:42;;;;;;;5.15;4.65;;;19.30;75.50;;;;;;5106037;28;20053;-78
2021/09/10 07:37:08;;;;;;;8.07;4.00;;;19.50;75.10;;;;;;5108760;28;20024;-78
2021/09/10 07:39:33;;;;;;;4.80;3.90;;;19.60;70.00;;;;;;5092530;28;20024;-78
2021/09/10 07:41:59;;;;;;;7.60;4.70;;;19.70;70.00;;;;;;5091857;28;20020;-78
2021/09/10 07:44:25;;;;;;;8.27;3.97;;;19.90;66.70;;;;;;5091544;28;20470;-78
2021/09/10 07:46:52;;;;;;;7.85;4.35;;;20.00;67.20;;;;;;5091514;28;20016;-78
2021/09/10 07:49:19;;;;;;;8.30;4.38;;;20.10;67.10;;;;;;5094939;28;20028;-78
2021/09/10 07:51:45;;;;;;;5.68;3.90;;;20.20;67.50;;;;;;5093698;28;20073;-78
2021/09/10 07:54:12;;;;;;;6.97;3.58;;;20.30;66.70;;;;;;5086373;28;20511;-78
2021/09/10 07:56:37;;;;;;;11.50;4.18;;;20.40;66.00;;;;;;5092149;28;20024;-78
2021/09/10 07:59:03;;;;;;;8.05;3.40;;;20.50;65.40;;;;;;5104225;28;20038;-78
2021/09/10 08:01:29;;;;;;;9.25;4.15;;;20.60;62.10;;;;;;5107727;28;20027;-78
2021/09/10 08:03:54;;;;;;;7.50;4.10;;;20.60;62.80;;;;;;5108592;28;20021;-78
2021/09/10 08:06:20;;;;;;;7.43;4.32;;;20.70;60.00;;;;;;5120222;27;20038;-78
2021/09/10 08:08:46;;;;;;;6.53;3.03;;;20.70;59.20;;;;;;5102016;28;20024;-79
2021/09/10 08:11:11;;;;;;;6.70;3.72;;;20.80;56.80;;;;;;5091938;28;20115;-78
2021/09/10 08:13:37;;;;;;;9.75;3.60;;;20.90;57.80;;;;;;5091570;28;20063;-78
2021/09/10 08:16:03;;;;;;;5.90;3.35;;;21.00;57.50;;;;;;5090680;28;20111;-78
2021/09/10 08:18:29;;;;;;;8.13;3.40;;;21.10;55.50;;;;;;5091574;28;20032;-78
2021/09/10 08:20:56;;;;;;;7.65;3.47;;;21.20;55.50;;;;;;5090850;28;20024;-78
2021/09/10 08:23:23;;;;;;;8.43;3.22;;;21.30;55.20;;;;;;5091367;28;20145;-78
2021/09/10 08:25:49;;;;;;;4.55;2.97;;;21.40;54.30;;;;;;5091780;28;20058;-78
2021/09/10 08:28:15;;;;;;;8.23;3.13;;;21.50;53.30;;;;;;5092454;28;20469;-78
2021/09/10 08:30:41;;;;;;;5.80;2.85;;;21.60;52.70;;;;;;5091881;28;20032;-78
2021/09/10 08:33:11;;;;;;;6.95;3.33;;;21.70;52.20;;;;;;5089551;28;20079;-78
2021/09/10 08:35:37;;;;;;;4.07;3.00;;;21.70;50.60;;;;;;5088432;28;20247;-78
2021/09/10 08:38:03;;;;;;;3.67;2.83;;;21.80;50.70;;;;;;5073550;28;20056;-78
2021/09/10 08:40:29;;;;;;;4.07;2.78;;;21.80;50.10;;;;;;5088681;28;20020;-78
2021/09/10 08:42:55;;;;;;;5.82;2.65;;;21.80;49.20;;;;;;5093198;28;20027;-78
2021/09/10 08:45:26;;;;;;;3.13;2.63;;;21.90;50.90;;;;;;5095436;28;20028;-78
2021/09/10 08:47:52;;;;;;;5.07;2.92;;;22.00;50.10;;;;;;5095189;28;20016;-79
2021/09/10 08:50:17;;;;;;;4.43;2.88;;;22.00;49.30;;;;;;5095506;28;20035;-78
2021/09/10 08:52:43;;;;;;;5.95;3.20;;;22.10;48.50;;;;;;5095171;28;20047;-78
2021/09/10 08:55:11;;;;;;;3.33;2.78;;;22.30;50.90;;;;;;5095425;28;20414;-78
2021/09/10 08:57:51;;;;;;;4.88;3.03;;;22.30;49.40;;;;;;5094942;28;20020;-78
2021/09/10 09:00:25;;;;;;;5.30;3.10;;;22.50;49.60;;;;;;5109653;28;20020;-78
2021/09/10 09:02:58;;;;;;;6.72;3.25;;;22.60;49.90;;;;;;5095299;28;20067;-78
2021/09/10 09:05:25;;;;;;;3.72;2.60;;;22.70;48.80;;;;;;5095693;28;20024;-78
2021/09/10 09:08:13;;;;;;;4.43;2.83;;;22.70;47.30;;;;;;5095197;28;20020;-78
2021/09/10 09:10:58;;;;;;;5.78;2.45;;;22.70;47.30;;;;;;5090852;28;20016;-78
2021/09/10 09:13:45;;;;;;;4.45;2.72;;;22.70;46.30;;;;;;5093403;28;20020;-78
2021/09/10 09:16:20;;;;;;;3.35;2.33;;;22.70;46.40;;;;;;5093059;28;20076;-78
2021/09/10 09:18:52;;;;;;;3.83;2.50;;;22.80;46.00;;;;;;5089037;28;20017;-78
2021/09/10 09:21:21;;;;;;;3.70;2.50;;;22.80;45.50;;;;;;5093510;28;20039;-78
2021/09/10 09:23:49;;;;;;;5.20;2.65;;;22.80;46.70;;;;;;5095818;28;20491;-78
2021/09/10 09:26:20;;;;;;;4.22;2.83;;;23.00;47.50;;;;;;5110743;28;20021;-78
2021/09/10 09:28:46;;;;;;;6.15;2.60;;;22.90;44.90;;;;;;5110985;27;20506;-78
2021/09/10 09:31:13;;;;;;;3.50;2.88;;;22.90;44.80;;;;;;5094579;28;20099;-78
2021/09/10 09:33:47;;;;;;;3.65;2.53;;;23.10;45.80;;;;;;5094227;28;20036;-78
2021/09/10 09:36:15;;;;;;;4.30;2.90;;;23.10;46.50;;;;;;5086452;28;20040;-78
2021/09/10 09:38:43;;;;;;;4.78;3.08;;;23.10;45.00;;;;;;5091768;28;20024;-78
2021/09/10 09:41:10;;;;;;;3.03;2.55;;;23.10;45.10;;;;;;5087594;28;20036;-78
2021/09/10 09:43:41;;;;;;;3.05;2.28;;;23.10;44.30;;;;;;5098173;28;20103;-78
2021/09/10 09:46:09;;;;;;;5.15;2.65;;;23.20;46.20;;;;;;5090109;28;20044;-78
2021/09/10 09:48:38;;;;;;;5.97;2.85;;;23.30;45.00;;;;;;5090518;28;20020;-80
2021/09/10 09:51:04;;;;;;;5.45;3.05;;;23.40;45.90;;;;;;5090395;28;20036;-80
2021/09/10 09:53:29;;;;;;;5.53;3.10;;;23.50;45.30;;;;;;5094163;28;20028;-79
2021/09/10 09:55:56;;;;;;;5.55;3.80;;;23.50;43.90;;;;;;5091354;28;20512;-80
2021/09/10 09:58:22;;;;;;;5.55;2.67;;;23.50;44.10;;;;;;5079046;28;20023;-77
2021/09/10 10:00:48;;;;;;;4.57;2.72;;;23.50;44.30;;;;;;5093649;28;20055;-76
2021/09/10 10:03:15;;;;;;;5.15;2.85;;;23.60;44.70;;;;;;5092584;28;20063;-77
2021/09/10 10:05:46;;;;;;;4.88;2.72;;;23.60;43.70;;;;;;5090857;28;20024;-78
2021/09/10 10:08:16;;;;;;;4.00;2.47;;;23.60;43.50;;;;;;5092763;28;20020;-78
2021/09/10 10:10:49;;;;;;;4.85;2.88;;;23.70;43.30;;;;;;5094770;28;20497;-77
2021/09/10 10:13:24;;;;;;;3.50;2.65;;;23.70;42.20;;;;;;5071081;28;20067;-79
2021/09/10 10:15:52;;;;;;;6.53;2.60;;;23.70;42.00;;;;;;5085795;28;20035;-78
2021/09/10 10:18:50;;;;;;;7.80;3.13;;;23.70;42.60;;;;;;5092738;28;20374;-78
2021/09/10 10:21:15;;;;;;;6.30;2.70;;;23.70;43.10;;;;;;5073368;28;20040;-77
2021/09/10 10:23:44;;;;;;;2.78;2.53;;;23.80;44.20;;;;;;5091750;28;20035;-78
2021/09/10 10:26:11;;;;;;;4.13;2.88;;;23.80;43.00;;;;;;5091179;28;20050;-77
2021/09/10 10:28:44;;;;;;;4.72;2.70;;;23.80;42.50;;;;;;5092916;28;20058;-78
2021/09/10 10:31:10;;;;;;;3.95;2.75;;;23.90;41.20;;;;;;5089667;28;20372;-78
2021/09/10 10:33:50;;;;;;;4.03;3.17;;;23.90;42.00;;;;;;5082346;28;20035;-78
2021/09/10 10:36:33;;;;;;;7.60;3.42;;;23.90;42.40;;;;;;5078392;28;20082;-78
2021/09/10 10:39:08;;;;;;;3.78;2.60;;;23.90;41.00;;;;;;5091920;28;20073;-77
2021/09/10 10:41:48;;;;;;;4.05;2.88;;;24.00;40.90;;;;;;5092214;28;20036;-78
2021/09/10 10:44:32;;;;;;;2.92;2.42;;;23.90;42.40;;;;;;5101100;28;20415;-78
2021/09/10 10:47:14;;;;;;;5.78;2.80;;;24.10;44.00;;;;;;5114528;28;20028;-78
2021/09/10 10:49:48;;;;;;;3.90;3.00;;;24.10;42.30;;;;;;5112669;28;20050;-78
2021/09/10 10:52:23;;;;;;;4.43;2.95;;;24.10;43.00;;;;;;5112554;28;20106;-78
2021/09/10 10:55:17;;;;;;;4.07;2.67;;;24.20;43.20;;;;;;5112594;28;20449;-78
2021/09/10 10:57:43;;;;;;;5.05;3.30;;;24.30;42.90;;;;;;5114808;28;20114;-78
2021/09/10 11:00:27;;;;;;;4.20;2.85;;;24.20;42.70;;;;;;5095198;28;20490;-78
2021/09/10 11:03:29;;;;;;;5.90;3.10;;;24.30;43.30;;;;;;5090974;28;20119;-78
2021/09/10 11:05:58;;;;;;;3.35;2.70;;;24.40;42.40;;;;;;5065056;28;20351;-78
2021/09/10 11:08:44;;;;;;;3.92;2.92;;;24.30;42.70;;;;;;5075206;28;20475;-78
2021/09/10 11:11:10;;;;;;;4.97;3.05;;;24.30;42.40;;;;;;5084638;28;20024;-78
2021/09/10 11:13:42;;;;;;;4.03;2.90;;;24.30;42.10;;;;;;5086001;28;20075;-78
2021/09/10 11:16:09;;;;;;;3.25;2.95;;;24.40;42.70;;;;;;5088212;28;20024;-78
2021/09/10 11:18:36;;;;;;;4.95;3.40;;;24.40;42.20;;;;;;5093854;28;20085;-78
2021/09/10 11:21:08;;;;;;;5.55;2.95;;;24.50;41.50;;;;;;5095888;28;20103;-78
2021/09/10 11:23:37;;;;;;;4.23;2.70;;;24.40;40.30;;;;;;5092133;28;20399;-78
2021/09/10 11:26:05;;;;;;;4.00;3.05;;;24.50;42.00;;;;;;5090865;28;20116;-78
2021/09/10 11:28:33;;;;;;;6.20;2.97;;;24.50;42.60;;;;;;5093300;28;20103;-78
2021/09/10 11:30:59;;;;;;;5.38;2.80;;;24.50;42.00;;;;;;5092649;28;20024;-78
2021/09/10 11:33:25;;;;;;;7.70;3.13;;;24.50;42.60;;;;;;5093121;28;20371;-79
2021/09/10 11:35:53;;;;;;;3.72;3.13;;;24.50;42.30;;;;;;5091108;28;20386;-78
2021/09/10 11:38:23;;;;;;;5.38;2.78;;;24.50;41.20;;;;;;5092229;28;20020;-78
2021/09/10 11:40:58;;;;;;;4.45;2.78;;;24.50;40.80;;;;;;5090788;28;20424;-79
2021/09/10 11:43:32;;;;;;;4.88;3.15;;;24.50;41.70;;;;;;5089436;28;20021;-78
2021/09/10 11:46:02;;;;;;;4.57;2.92;;;24.60;41.70;;;;;;5101347;28;20035;-78
2021/09/10 11:48:37;;;;;;;4.13;3.22;;;24.50;42.50;;;;;;5076529;28;20025;-79
2021/09/10 11:51:13;;;;;;;4.13;2.80;;;24.50;41.50;;;;;;5088462;28;20032;-78
2021/09/10 11:53:45;;;;;;;4.72;2.80;;;24.50;41.90;;;;;;5107758;28;20485;-79
2021/09/10 11:56:12;;;;;;;4.30;3.28;;;24.60;42.20;;;;;;5097520;28;20458;-78
2021/09/10 11:58:43;;;;;;;6.25;2.97;;;24.50;41.70;;;;;;5089689;28;20111;-78
2021/09/10 12:01:13;;;;;;;5.47;3.58;;;24.60;41.90;;;;;;5102810;28;20562;-78
2021/09/10 12:04:02;;;;;;;4.25;2.67;;;24.60;41.20;;;;;;5076480;28;20027;-78
2021/09/10 12:06:34;;;;;;;4.60;3.35;;;24.80;41.40;;;;;;5090489;28;20634;-78
2021/09/10 12:09:17;;;;;;;3.83;2.80;;;24.70;42.00;;;;;;5105112;28;20089;-79
2021/09/10 12:12:07;;;;;;;3.08;2.70;;;24.70;40.60;;;;;;5108634;28;20093;-78
2021/09/10 12:14:50;;;;;;;3.88;2.60;;;24.80;41.00;;;;;;5078298;28;20036;-78
2021/09/10 12:17:25;;;;;;;4.05;2.55;;;24.80;39.80;;;;;;5095307;28;20032;-78
2021/09/10 12:20:08;;;;;;;22.42;3.63;;;24.90;39.60;;;;;;5110447;28;20031;-79
2021/09/10 12:22:49;;;;;;;4.97;2.90;;;24.90;38.90;;;;;;5092614;28;20055;-78
2021/09/10 12:25:44;;;;;;;3.65;2.50;;;24.70;37.90;;;;;;5095641;28;20477;-78
2021/09/10 12:28:20;;;;;;;5.07;2.60;;;24.80;39.40;;;;;;5094027;28;20028;-79
2021/09/10 12:31:05;;;;;;;5.40;2.72;;;24.80;39.40;;;;;;5096314;28;20020;-78
2021/09/10 12:33:32;;;;;;;3.90;2.95;;;24.90;38.70;;;;;;5093076;28;20024;-78
2021/09/10 12:36:00;;;;;;;6.60;2.75;;;24.90;38.90;;;;;;5109997;28;20032;-78
2021/09/10 12:38:46;;;;;;;7.05;3.05;;;24.90;38.90;;;;;;5109856;28;20548;-78
2021/09/10 12:41:12;;;;;;;4.78;3.50;;;24.80;39.50;;;;;;5097696;27;20024;-78
2021/09/10 12:43:38;;;;;;;4.95;2.90;;;24.90;40.80;;;;;;5084593;28;20429;-79
2021/09/10 12:46:06;;;;;;;4.78;2.65;;;24.90;40.80;;;;;;5107530;27;20020;-79
2021/09/10 12:48:32;;;;;;;3.95;2.72;;;24.90;40.40;;;;;;5110841;28;20043;-78